EST,Max TemperatureF,Mean TemperatureF,Min TemperatureF,Max Dew PointF,MeanDew PointF,Min DewpointF,Max Humidity, Mean Humidity, Min Humidity, Max Sea Level PressureIn, Mean Sea Level PressureIn, Min Sea Level PressureIn, Max VisibilityMiles, Mean VisibilityMiles, Min VisibilityMiles, Max Wind SpeedMPH, Mean Wind SpeedMPH, Max Gust SpeedMPH,PrecipitationIn, CloudCover, Events, WindDirDegrees
2013-1-1,31,20,9,24,13,5,86,68,52,30.14,30.08,30.02,10,10,7,10,3,,0.00,5,,323
2013-1-2,25,18,11,16,12,7,84,74,66,30.21,30.15,30.09,10,10,10,9,3,,0.00,5,,231
2013-1-3,30,22,13,24,15,4,80,70,58,30.19,30.14,30.09,10,9,5,14,6,21,0.00,6,,234
2013-1-4,29,24,20,21,17,13,79,70,61,30.20,30.15,30.09,10,10,10,18,12,31,0.00,2,,239
2013-1-5,34,26,19,30,22,16,89,77,63,30.29,30.19,30.05,10,8,4,13,8,18,0.00,3,Snow,215
2013-1-6,36,34,31,31,28,26,85,78,72,30.27,30.03,29.93,10,8,5,15,9,21,0.00,8,,241
2013-1-7,35,32,28,26,23,21,79,71,62,30.40,30.30,30.18,10,10,7,17,4,28,0.00,3,,212
2013-1-8,38,32,25,27,24,20,82,73,58,30.27,30.22,30.18,10,8,5,12,6,,0.00,0,,191
2013-1-9,46,38,29,32,29,23,83,67,49,30.47,30.21,30.06,10,10,7,18,9,28,0.00,1,,235
2013-1-10,40,32,24,32,27,22,89,81,65,30.56,30.44,30.15,10,9,3,9,2,,0.00,2,Rain,96
2013-1-11,58,46,35,51,43,32,93,84,71,30.14,29.90,29.77,10,8,0,16,7,28,0.00,5,Rain,183
2013-1-12,60,54,48,51,47,44,93,81,68,29.97,29.91,29.79,10,8,1,13,7,21,0.00,1,Rain,208
2013-1-13,52,42,32,50,39,28,94,90,84,30.06,29.87,29.73,10,6,1,17,7,23,0.00,8,Rain,316
2013-1-14,32,26,20,27,18,15,88,72,62,30.43,30.33,30.08,10,10,10,16,8,22,0.00,7,,295
2013-1-15,30,23,16,20,17,13,89,74,56,30.43,30.34,30.13,10,9,5,8,1,,0.00,1,,83
2013-1-16,37,29,21,26,21,18,89,70,48,30.12,29.96,29.85,10,9,5,16,4,25,0.00,3,,244
2013-1-17,40,30,21,28,22,8,84,65,46,30.32,30.15,29.99,10,9,5,16,7,24,0.00,3,,288
2013-1-18,37,29,21,22,17,9,79,60,50,30.44,30.28,30.02,10,10,10,20,7,33,0.00,4,Snow,218
2013-1-19,49,43,37,33,27,22,66,53,45,30.01,29.87,29.65,10,10,10,23,15,31,0.00,1,,228
2013-1-20,43,31,19,33,11,5,68,55,46,30.19,30.05,29.65,10,10,5,25,15,39,0.00,7,Snow,280
2013-1-21,20,14,9,10,6,0,77,63,53,30.15,30.05,29.97,10,9,1,22,10,29,0.00,6,Snow,261
2013-1-22,13,7,1,5,-2,-9,79,65,55,30.31,30.24,30.12,10,9,1,14,7,21,0.00,5,Snow,275
2013-1-23,19,12,4,13,3,-2,84,67,48,30.29,30.19,30.07,10,9,2,12,5,18,0.00,7,Snow,239
2013-1-24,21,14,8,12,6,0,84,67,41,30.58,30.44,30.09,10,10,1,10,5,,0.00,1,Snow,325
2013-1-25,22,19,17,18,12,7,87,73,61,30.48,30.17,30.01,10,6,1,8,4,,0.00,8,Snow,157
2013-1-26,27,20,13,20,16,10,87,74,53,30.44,30.26,30.04,10,9,5,9,4,,0.00,6,Snow,290
2013-1-27,32,21,10,26,16,7,89,75,57,30.48,30.38,30.13,10,8,2,12,3,16,0.00,5,Snow,142
2013-1-28,49,40,32,46,40,26,93,91,77,30.13,29.97,29.88,10,3,0,16,8,23,0.00,8,Fog-Rain,212
2013-1-29,59,48,36,54,47,35,95,88,79,30.02,29.79,29.49,10,4,0,16,7,28,0.00,8,Fog-Rain,178
2013-1-30,64,49,34,56,47,26,92,83,71,29.47,29.28,29.15,10,9,2,25,13,38,0.00,7,Rain,216
2013-1-31,33,25,17,25,15,7,83,66,52,29.90,29.68,29.33,10,9,2,25,19,41,0.00,8,Snow,264